sensor_id;sensor_type;location;lat;lon;timestamp;pressure;altitude;pressure_sealevel;temperature;humidity
55217;BME280;41086;46.736;15.666;2022-12-18T00:01:19;99752.09;;;-2.59;100.00
55217;BME280;41086;46.736;15.666;2022-12-18T00:03:46;99759.91;;;-2.48;100.00
55217;BME280;41086;46.736;15.666;2022-12-18T00:06:13;99764.22;;;-2.53;100.00
55217;BME280;41086;46.736;15.666;2022-12-18T00:08:42;99762.47;;;-2.60;100.00
55217;BME280;41086;46.736;15.666;2022-12-18T00:11:12;99765.91;;;-2.61;100.00
55217;BME280;41086;46.736;15.666;2022-12-18T00:13:39;99758.97;;;-2.64;100.00
55217;BME280;41086;46.736;15.666;2022-12-18T00:16:10;99768.47;;;-2.71;100.00
55217;BME280;41086;46.736;15.666;2022-12-18T00:18:38;99769.31;;;-2.76;100.00
55217;BME280;41086;46.736;15.666;2022-12-18T00:21:08;99774.56;;;-2.65;100.00
55217;BME280;41086;46.736;15.666;2022-12-18T00:23:38;99772.84;;;-2.59;100.00
55217;BME280;41086;46.736;15.666;2022-12-18T00:26:09;99779.81;;;-2.50;100.00
55217;BME280;41086;46.736;15.666;2022-12-18T00:28:36;99785.00;;;-2.47;100.00
55217;BME280;41086;46.736;15.666;2022-12-18T00:31:05;99791.94;;;-2.48;100.00
55217;BME280;41086;46.736;15.666;2022-12-18T00:33:33;99791.06;;;-2.51;100.00
55217;BME280;41086;46.736;15.666;2022-12-18T00:36:05;99792.72;;;-2.61;100.00
55217;BME280;41086;46.736;15.666;2022-12-18T00:38:33;99793.63;;;-2.57;100.00
55217;BME280;41086;46.736;15.666;2022-12-18T00:41:00;99792.75;;;-2.56;100.00
55217;BME280;41086;46.736;15.666;2022-12-18T00:43:27;99800.59;;;-2.47;100.00
55217;BME280;41086;46.736;15.666;2022-12-18T00:45:54;99800.59;;;-2.46;100.00
55217;BME280;41086;46.736;15.666;2022-12-18T00:48:21;99810.97;;;-2.55;100.00
55217;BME280;41086;46.736;15.666;2022-12-18T00:50:49;99806.56;;;-2.63;100.00
55217;BME280;41086;46.736;15.666;2022-12-18T00:53:16;99809.19;;;-2.60;100.00
55217;BME280;41086;46.736;15.666;2022-12-18T00:55:44;99814.44;;;-2.51;100.00
55217;BME280;41086;46.736;15.666;2022-12-18T00:58:13;99815.28;;;-2.48;100.00
55217;BME280;41086;46.736;15.666;2022-12-18T01:00:41;99817.91;;;-2.52;100.00
55217;BME280;41086;46.736;15.666;2022-12-18T01:03:13;99813.50;;;-2.65;100.00
55217;BME280;41086;46.736;15.666;2022-12-18T01:05:43;99823.88;;;-2.62;100.00
55217;BME280;41086;46.736;15.666;2022-12-18T01:08:10;99816.97;;;-2.59;100.00
55217;BME280;41086;46.736;15.666;2022-12-18T01:10:40;99819.53;;;-2.67;100.00
55217;BME280;41086;46.736;15.666;2022-12-18T01:13:07;99824.66;;;-2.76;100.00
55217;BME280;41086;46.736;15.666;2022-12-18T01:15:34;99831.66;;;-2.64;100.00
55217;BME280;41086;46.736;15.666;2022-12-18T01:18:01;99833.41;;;-2.61;100.00
55217;BME280;41086;46.736;15.666;2022-12-18T01:20:28;99831.69;;;-2.56;100.00
55217;BME280;41086;46.736;15.666;2022-12-18T01:22:55;99840.34;;;-2.57;100.00
55217;BME280;41086;46.736;15.666;2022-12-18T01:25:21;99826.47;;;-2.65;100.00
55217;BME280;41086;46.736;15.666;2022-12-18T01:27:49;99841.19;;;-2.61;100.00
55217;BME280;41086;46.736;15.666;2022-12-18T01:30:16;99843.78;;;-2.63;100.00
55217;BME280;41086;46.736;15.666;2022-12-18T01:32:44;99854.97;;;-2.73;100.00
55217;BME280;41086;46.736;15.666;2022-12-18T01:35:11;99853.22;;;-2.76;100.00
55217;BME280;41086;46.736;15.666;2022-12-18T01:37:37;99849.81;;;-2.65;100.00
55217;BME280;41086;46.736;15.666;2022-12-18T01:40:05;99854.13;;;-2.68;100.00
55217;BME280;41086;46.736;15.666;2022-12-18T01:42:32;99852.41;;;-2.65;100.00
55217;BME280;41086;46.736;15.666;2022-12-18T01:47:39;99844.63;;;-2.61;100.00
55217;BME280;41086;46.736;15.666;2022-12-18T01:50:12;99845.50;;;-2.65;100.00
55217;BME280;41086;46.736;15.666;2022-12-18T01:52:48;99856.72;;;-2.71;100.00
55217;BME280;41086;46.736;15.666;2022-12-18T01:55:18;99856.69;;;-2.72;100.00
55217;BME280;41086;46.736;15.666;2022-12-18T01:57:46;99854.94;;;-2.75;100.00
55217;BME280;41086;46.736;15.666;2022-12-18T02:00:17;99866.22;;;-2.71;100.00
55217;BME280;41086;46.736;15.666;2022-12-18T02:02:45;99872.22;;;-2.75;100.00
55217;BME280;41086;46.736;15.666;2022-12-18T02:05:17;99874.81;;;-2.78;100.00
55217;BME280;41086;46.736;15.666;2022-12-18T02:10:39;99872.19;;;-2.80;100.00
55217;BME280;41086;46.736;15.666;2022-12-18T02:13:32;99879.13;;;-2.80;100.00
55217;BME280;41086;46.736;15.666;2022-12-18T02:16:08;99885.22;;;-2.75;100.00
55217;BME280;41086;46.736;15.666;2022-12-18T02:18:44;99878.25;;;-2.78;100.00
55217;BME280;41086;46.736;15.666;2022-12-18T02:21:40;99887.78;;;-2.78;100.00
55217;BME280;41086;46.736;15.666;2022-12-18T02:24:24;99890.41;;;-2.77;100.00
55217;BME280;41086;46.736;15.666;2022-12-18T02:27:04;99899.06;;;-2.72;100.00
55217;BME280;41086;46.736;15.666;2022-12-18T02:29:52;99906.91;;;-2.64;100.00
55217;BME280;41086;46.736;15.666;2022-12-18T02:32:32;99909.50;;;-2.67;100.00
55217;BME280;41086;46.736;15.666;2022-12-18T02:35:03;99916.47;;;-2.58;100.00
55217;BME280;41086;46.736;15.666;2022-12-18T02:37:33;99916.50;;;-2.55;100.00
55217;BME280;41086;46.736;15.666;2022-12-18T02:40:04;99916.56;;;-2.49;100.00
55217;BME280;41086;46.736;15.666;2022-12-18T02:42:34;99918.31;;;-2.43;100.00
55217;BME280;41086;46.736;15.666;2022-12-18T02:45:04;99902.72;;;-2.47;100.00
55217;BME280;41086;46.736;15.666;2022-12-18T02:47:37;99900.97;;;-2.51;100.00
55217;BME280;41086;46.736;15.666;2022-12-18T02:56:02;99907.91;;;-2.47;100.00
55217;BME280;41086;46.736;15.666;2022-12-18T02:58:51;99904.44;;;-2.47;100.00
55217;BME280;41086;46.736;15.666;2022-12-18T03:01:55;99910.53;;;-2.47;100.00
55217;BME280;41086;46.736;15.666;2022-12-18T03:04:29;99906.97;;;-2.58;100.00
55217;BME280;41086;46.736;15.666;2022-12-18T03:07:02;99919.00;;;-2.71;100.00
55217;BME280;41086;46.736;15.666;2022-12-18T03:09:35;99914.72;;;-2.65;100.00
55217;BME280;41086;46.736;15.666;2022-12-18T03:17:32;99926.88;;;-2.57;100.00
55217;BME280;41086;46.736;15.666;2022-12-18T03:20:06;99927.72;;;-2.62;100.00
55217;BME280;41086;46.736;15.666;2022-12-18T03:22:35;99931.06;;;-2.73;100.00
55217;BME280;41086;46.736;15.666;2022-12-18T03:25:06;99941.47;;;-2.70;100.00
55217;BME280;41086;46.736;15.666;2022-12-18T03:27:43;99934.56;;;-2.71;100.00
55217;BME280;41086;46.736;15.666;2022-12-18T03:30:17;99930.28;;;-2.64;100.00
55217;BME280;41086;46.736;15.666;2022-12-18T03:32:56;99946.72;;;-2.63;100.00
55217;BME280;41086;46.736;15.666;2022-12-18T03:35:31;99933.75;;;-2.65;100.00
55217;BME280;41086;46.736;15.666;2022-12-18T03:37:59;99941.53;;;-2.63;100.00
55217;BME280;41086;46.736;15.666;2022-12-18T03:40:38;99932.84;;;-2.67;100.00
55217;BME280;41086;46.736;15.666;2022-12-18T03:44:17;99931.13;;;-2.63;100.00
55217;BME280;41086;46.736;15.666;2022-12-18T03:46:28;99938.97;;;-2.59;100.00
55217;BME280;41086;46.736;15.666;2022-12-18T03:49:08;99939.84;;;-2.57;100.00
55217;BME280;41086;46.736;15.666;2022-12-18T03:51:42;99936.41;;;-2.57;100.00
55217;BME280;41086;46.736;15.666;2022-12-18T03:54:11;99938.13;;;-2.56;100.00
55217;BME280;41086;46.736;15.666;2022-12-18T03:56:51;99929.41;;;-2.64;100.00
55217;BME280;41086;46.736;15.666;2022-12-18T03:59:21;99935.50;;;-2.62;100.00
55217;BME280;41086;46.736;15.666;2022-12-18T04:01:51;99946.72;;;-2.63;100.00
55217;BME280;41086;46.736;15.666;2022-12-18T04:04:21;99939.78;;;-2.64;100.00
55217;BME280;41086;46.736;15.666;2022-12-18T04:06:49;99944.97;;;-2.66;100.00
55217;BME280;41086;46.736;15.666;2022-12-18T04:09:19;99946.72;;;-2.65;100.00
55217;BME280;41086;46.736;15.666;2022-12-18T04:11:47;99951.88;;;-2.67;100.00
55217;BME280;41086;46.736;15.666;2022-12-18T04:14:15;99964.09;;;-2.55;100.00
55217;BME280;41086;46.736;15.666;2022-12-18T04:16:45;99971.91;;;-2.52;100.00
55217;BME280;41086;46.736;15.666;2022-12-18T04:19:15;99977.94;;;-2.53;100.00
55217;BME280;41086;46.736;15.666;2022-12-18T04:21:43;99977.84;;;-2.63;100.00
55217;BME280;41086;46.736;15.666;2022-12-18T04:24:12;99981.34;;;-2.61;100.00
55217;BME280;41086;46.736;15.666;2022-12-18T04:26:45;99981.38;;;-2.58;100.00
55217;BME280;41086;46.736;15.666;2022-12-18T04:29:17;99969.22;;;-2.65;100.00
55217;BME280;41086;46.736;15.666;2022-12-18T04:31:44;99977.06;;;-2.58;100.00
55217;BME280;41086;46.736;15.666;2022-12-18T04:34:10;99974.31;;;-2.75;100.00
55217;BME280;41086;46.736;15.666;2022-12-18T04:36:44;99985.50;;;-2.82;100.00
55217;BME280;41086;46.736;15.666;2022-12-18T04:39:12;99981.19;;;-2.78;100.00
55217;BME280;41086;46.736;15.666;2022-12-18T04:41:40;99988.09;;;-2.82;100.00
55217;BME280;41086;46.736;15.666;2022-12-18T04:44:08;99992.38;;;-2.85;100.00
55217;BME280;41086;46.736;15.666;2022-12-18T04:46:34;99985.50;;;-2.82;100.00
55217;BME280;41086;46.736;15.666;2022-12-18T04:49:01;99987.25;;;-2.78;100.00
55217;BME280;41086;46.736;15.666;2022-12-18T04:51:28;99998.50;;;-2.79;100.00
55217;BME280;41086;46.736;15.666;2022-12-18T04:53:55;100002.84;;;-2.75;100.00
55217;BME280;41086;46.736;15.666;2022-12-18T04:56:22;100017.50;;;-2.80;100.00
55217;BME280;41086;46.736;15.666;2022-12-18T04:58:49;100011.38;;;-2.90;100.00
55217;BME280;41086;46.736;15.666;2022-12-18T05:01:17;100012.97;;;-3.02;100.00
55217;BME280;41086;46.736;15.666;2022-12-18T05:03:44;100008.59;;;-3.05;100.00
55217;BME280;41086;46.736;15.666;2022-12-18T05:06:11;100016.47;;;-2.97;100.00
55217;BME280;41086;46.736;15.666;2022-12-18T05:08:38;100015.59;;;-2.96;100.00
55217;BME280;41086;46.736;15.666;2022-12-18T05:11:08;100030.31;;;-2.97;100.00
55217;BME280;41086;46.736;15.666;2022-12-18T05:13:36;100022.56;;;-2.94;100.00
55217;BME280;41086;46.736;15.666;2022-12-18T05:16:05;100038.22;;;-2.87;100.00
55217;BME280;41086;46.736;15.666;2022-12-18T05:18:33;100035.53;;;-2.94;100.00
55217;BME280;41086;46.736;15.666;2022-12-18T05:21:00;100044.22;;;-2.90;100.00
55217;BME280;41086;46.736;15.666;2022-12-18T05:23:27;100041.59;;;-2.93;100.00
55217;BME280;41086;46.736;15.666;2022-12-18T05:26:00;100045.88;;;-2.98;100.00
55217;BME280;41086;46.736;15.666;2022-12-18T05:28:29;100044.97;;;-3.00;100.00
55217;BME280;41086;46.736;15.666;2022-12-18T05:30:58;100048.53;;;-2.91;100.00
55217;BME280;41086;46.736;15.666;2022-12-18T05:33:27;100040.81;;;-2.87;100.00
55217;BME280;41086;46.736;15.666;2022-12-18T05:35:58;100050.34;;;-2.83;100.00
55217;BME280;41086;46.736;15.666;2022-12-18T05:38:26;100044.31;;;-2.81;100.00
55217;BME280;41086;46.736;15.666;2022-12-18T05:40:53;100046.84;;;-2.85;100.00
55217;BME280;41086;46.736;15.666;2022-12-18T05:43:20;100055.56;;;-2.82;100.00
55217;BME280;41086;46.736;15.666;2022-12-18T05:45:48;100052.97;;;-2.82;100.00
55217;BME280;41086;46.736;15.666;2022-12-18T05:48:16;100061.69;;;-2.77;100.00
55217;BME280;41086;46.736;15.666;2022-12-18T05:50:45;100065.94;;;-2.82;100.00
55217;BME280;41086;46.736;15.666;2022-12-18T05:53:13;100065.09;;;-2.79;100.00
55217;BME280;41086;46.736;15.666;2022-12-18T05:55:42;100061.59;;;-2.83;100.00
55217;BME280;41086;46.736;15.666;2022-12-18T05:58:10;100048.47;;;-2.98;100.00
55217;BME280;41086;46.736;15.666;2022-12-18T06:00:39;100062.34;;;-2.95;100.00
55217;BME280;41086;46.736;15.666;2022-12-18T06:03:07;100064.81;;;-3.05;100.00
55217;BME280;41086;46.736;15.666;2022-12-18T06:05:40;100077.75;;;-3.07;100.00
55217;BME280;41086;46.736;15.666;2022-12-18T06:08:07;100075.97;;;-3.09;100.00
55217;BME280;41086;46.736;15.666;2022-12-18T06:10:34;100068.22;;;-3.08;100.00
55217;BME280;41086;46.736;15.666;2022-12-18T06:13:01;100075.97;;;-3.11;100.00
55217;BME280;41086;46.736;15.666;2022-12-18T06:15:28;100080.31;;;-3.10;100.00
55217;BME280;41086;46.736;15.666;2022-12-18T06:17:55;100077.69;;;-3.15;100.00
55217;BME280;41086;46.736;15.666;2022-12-18T06:20:22;100088.97;;;-3.08;100.00
55217;BME280;41086;46.736;15.666;2022-12-18T06:22:49;100095.00;;;-3.10;100.00
55217;BME280;41086;46.736;15.666;2022-12-18T06:25:15;100099.31;;;-3.09;100.00
55217;BME280;41086;46.736;15.666;2022-12-18T06:27:42;100099.38;;;-3.06;100.00
55217;BME280;41086;46.736;15.666;2022-12-18T06:30:10;100108.88;;;-3.08;100.00
55217;BME280;41086;46.736;15.666;2022-12-18T06:32:38;100108.84;;;-3.12;100.00
55217;BME280;41086;46.736;15.666;2022-12-18T06:35:05;100113.16;;;-3.12;100.00
55217;BME280;41086;46.736;15.666;2022-12-18T06:37:31;100113.16;;;-3.10;100.00
55217;BME280;41086;46.736;15.666;2022-12-18T06:39:58;100110.59;;;-3.09;100.00
55217;BME280;41086;46.736;15.666;2022-12-18T06:42:25;100113.13;;;-3.14;100.00
55217;BME280;41086;46.736;15.666;2022-12-18T06:44:52;100113.09;;;-3.17;100.00
55217;BME280;41086;46.736;15.666;2022-12-18T06:47:19;100097.25;;;-3.37;100.00
55217;BME280;41086;46.736;15.666;2022-12-18T06:49:45;100128.63;;;-3.20;100.00
55217;BME280;41086;46.736;15.666;2022-12-18T06:52:12;100127.75;;;-3.20;100.00
55217;BME280;41086;46.736;15.666;2022-12-18T06:54:39;100131.22;;;-3.20;100.00
55217;BME280;41086;46.736;15.666;2022-12-18T06:57:05;100127.81;;;-3.14;100.00
55217;BME280;41086;46.736;15.666;2022-12-18T06:59:32;100133.03;;;-3.09;100.00
55217;BME280;41086;46.736;15.666;2022-12-18T07:01:59;100136.47;;;-3.14;100.00
55217;BME280;41086;46.736;15.666;2022-12-18T07:04:29;100145.94;;;-3.16;100.00
55217;BME280;41086;46.736;15.666;2022-12-18T07:06:56;100125.19;;;-3.16;100.00
55217;BME280;41086;46.736;15.666;2022-12-18T07:09:24;100144.28;;;-3.10;100.00
55217;BME280;41086;46.736;15.666;2022-12-18T07:11:52;100153.75;;;-3.13;100.00
55217;BME280;41086;46.736;15.666;2022-12-18T07:14:19;100153.75;;;-3.13;100.00
55217;BME280;41086;46.736;15.666;2022-12-18T07:16:46;100165.09;;;-3.06;100.00
55217;BME280;41086;46.736;15.666;2022-12-18T07:19:13;100168.59;;;-3.02;100.00
55217;BME280;41086;46.736;15.666;2022-12-18T07:21:40;100165.25;;;-2.95;100.00
55217;BME280;41086;46.736;15.666;2022-12-18T07:24:07;100164.47;;;-2.86;100.00
55217;BME280;41086;46.736;15.666;2022-12-18T07:26:34;100161.94;;;-2.80;100.00
55217;BME280;41086;46.736;15.666;2022-12-18T07:29:01;100161.97;;;-2.77;100.00
55217;BME280;41086;46.736;15.666;2022-12-18T07:31:28;100159.38;;;-2.79;100.00
55217;BME280;41086;46.736;15.666;2022-12-18T07:33:55;100166.44;;;-2.69;100.00
55217;BME280;41086;46.736;15.666;2022-12-18T07:36:22;100168.13;;;-2.71;100.00
55217;BME280;41086;46.736;15.666;2022-12-18T07:38:49;100161.16;;;-2.76;100.00
55217;BME280;41086;46.736;15.666;2022-12-18T07:41:17;100171.28;;;-2.95;100.00
55217;BME280;41086;46.736;15.666;2022-12-18T07:43:45;100178.03;;;-3.09;100.00
55217;BME280;41086;46.736;15.666;2022-12-18T07:46:13;100186.59;;;-3.13;100.00
55217;BME280;41086;46.736;15.666;2022-12-18T07:48:41;100194.50;;;-3.05;100.00
55217;BME280;41086;46.736;15.666;2022-12-18T07:51:11;100197.78;;;-3.19;100.00
55217;BME280;41086;46.736;15.666;2022-12-18T07:53:38;100212.38;;;-3.24;100.00
55217;BME280;41086;46.736;15.666;2022-12-18T07:56:08;100202.16;;;-3.15;100.00
55217;BME280;41086;46.736;15.666;2022-12-18T07:58:55;100222.97;;;-3.12;100.00
55217;BME280;41086;46.736;15.666;2022-12-18T08:01:22;100206.53;;;-3.10;100.00
55217;BME280;41086;46.736;15.666;2022-12-18T08:03:50;100215.22;;;-3.08;100.00
55217;BME280;41086;46.736;15.666;2022-12-18T08:06:18;100214.44;;;-3.01;100.00
55217;BME280;41086;46.736;15.666;2022-12-18T08:08:52;100216.03;;;-3.09;100.00
55217;BME280;41086;46.736;15.666;2022-12-18T08:11:20;100215.09;;;-3.16;100.00
55217;BME280;41086;46.736;15.666;2022-12-18T08:13:47;100227.16;;;-3.18;100.00
55217;BME280;41086;46.736;15.666;2022-12-18T08:16:14;100216.00;;;-3.13;100.00
55217;BME280;41086;46.736;15.666;2022-12-18T08:18:41;100217.09;;;-2.98;100.00
55217;BME280;41086;46.736;15.666;2022-12-18T08:21:16;100218.84;;;-2.96;100.00
55217;BME280;41086;46.736;15.666;2022-12-18T08:23:43;100242.22;;;-2.96;100.00
55217;BME280;41086;46.736;15.666;2022-12-18T08:26:11;100242.91;;;-3.04;100.00
55217;BME280;41086;46.736;15.666;2022-12-18T08:28:39;100243.69;;;-3.12;100.00
55217;BME280;41086;46.736;15.666;2022-12-18T08:31:06;100253.97;;;-3.18;100.00
55217;BME280;41086;46.736;15.666;2022-12-18T08:33:35;100257.41;;;-3.19;100.00
55217;BME280;41086;46.736;15.666;2022-12-18T08:36:03;100259.31;;;-3.08;100.00
55217;BME280;41086;46.736;15.666;2022-12-18T08:38:34;100253.38;;;-3.00;100.00
55217;BME280;41086;46.736;15.666;2022-12-18T08:41:03;100264.47;;;-3.10;100.00
55217;BME280;41086;46.736;15.666;2022-12-18T08:43:31;100260.22;;;-3.05;100.00
55217;BME280;41086;46.736;15.666;2022-12-18T08:46:17;100259.53;;;-2.93;100.00
55217;BME280;41086;46.736;15.666;2022-12-18T08:48:45;100247.47;;;-2.90;100.00
55217;BME280;41086;46.736;15.666;2022-12-18T08:51:12;100251.66;;;-2.99;100.00
55217;BME280;41086;46.736;15.666;2022-12-18T08:53:39;100261.00;;;-3.12;100.00
55217;BME280;41086;46.736;15.666;2022-12-18T08:56:07;100256.78;;;-3.04;100.00
55217;BME280;41086;46.736;15.666;2022-12-18T08:58:34;100269.75;;;-3.04;100.00
55217;BME280;41086;46.736;15.666;2022-12-18T09:01:07;100252.50;;;-2.99;100.00
55217;BME280;41086;46.736;15.666;2022-12-18T09:03:36;100242.97;;;-3.03;100.00
55217;BME280;41086;46.736;15.666;2022-12-18T09:06:04;100257.81;;;-2.93;100.00
55217;BME280;41086;46.736;15.666;2022-12-18T09:08:34;100215.13;;;-3.15;100.00
55217;BME280;41086;46.736;15.666;2022-12-18T09:11:01;100276.56;;;-3.10;100.00
55217;BME280;41086;46.736;15.666;2022-12-18T09:13:28;100261.84;;;-3.12;100.00
55217;BME280;41086;46.736;15.666;2022-12-18T09:15:55;100271.41;;;-3.07;100.00
55217;BME280;41086;46.736;15.666;2022-12-18T09:18:23;100287.63;;;-3.21;100.00
55217;BME280;41086;46.736;15.666;2022-12-18T09:20:51;100267.56;;;-3.32;100.00
55217;BME280;41086;46.736;15.666;2022-12-18T09:23:20;100292.03;;;-3.15;100.00
55217;BME280;41086;46.736;15.666;2022-12-18T09:25:47;100287.13;;;-2.98;100.00
55217;BME280;41086;46.736;15.666;2022-12-18T09:28:17;100300.91;;;-3.02;100.00
55217;BME280;41086;46.736;15.666;2022-12-18T09:30:48;100299.22;;;-2.99;100.00
55217;BME280;41086;46.736;15.666;2022-12-18T09:33:17;100313.09;;;-2.97;100.00
55217;BME280;41086;46.736;15.666;2022-12-18T09:35:45;100308.53;;;-3.12;100.00
55217;BME280;41086;46.736;15.666;2022-12-18T09:38:17;100309.41;;;-3.09;100.00
55217;BME280;41086;46.736;15.666;2022-12-18T09:40:58;100299.28;;;-2.96;100.00
55217;BME280;41086;46.736;15.666;2022-12-18T09:43:45;100294.19;;;-2.90;100.00
55217;BME280;41086;46.736;15.666;2022-12-18T09:46:20;100302.22;;;-2.71;100.00
55217;BME280;41086;46.736;15.666;2022-12-18T09:48:55;100302.22;;;-2.71;100.00
55217;BME280;41086;46.736;15.666;2022-12-18T09:51:37;100311.44;;;-2.93;100.00
55217;BME280;41086;46.736;15.666;2022-12-18T09:54:07;100316.53;;;-2.96;100.00
55217;BME280;41086;46.736;15.666;2022-12-18T09:56:43;100320.09;;;-2.91;100.00
55217;BME280;41086;46.736;15.666;2022-12-18T09:59:20;100323.38;;;-3.01;100.00
55217;BME280;41086;46.736;15.666;2022-12-18T10:01:47;100322.63;;;-2.96;100.00
55217;BME280;41086;46.736;15.666;2022-12-18T10:04:14;100320.03;;;-2.94;100.00
55217;BME280;41086;46.736;15.666;2022-12-18T10:07:23;100308.09;;;-2.83;100.00
55217;BME280;41086;46.736;15.666;2022-12-18T10:10:21;100296.84;;;-2.83;100.00
55217;BME280;41086;46.736;15.666;2022-12-18T10:15:44;100306.97;;;-3.00;100.00
55217;BME280;41086;46.736;15.666;2022-12-18T10:18:57;100296.72;;;-2.91;100.00
55217;BME280;41086;46.736;15.666;2022-12-18T10:21:25;100282.94;;;-2.90;100.00
55217;BME280;41086;46.736;15.666;2022-12-18T10:26:31;100287.91;;;-3.04;100.00
55217;BME280;41086;46.736;15.666;2022-12-18T10:28:58;100283.72;;;-2.96;100.00
55217;BME280;41086;46.736;15.666;2022-12-18T10:31:31;100279.44;;;-2.92;100.00
55217;BME280;41086;46.736;15.666;2022-12-18T10:33:58;100276.88;;;-2.89;100.00
55217;BME280;41086;46.736;15.666;2022-12-18T10:36:24;100276.00;;;-2.88;100.00
55217;BME280;41086;46.736;15.666;2022-12-18T10:38:51;100275.00;;;-2.99;100.00
55217;BME280;41086;46.736;15.666;2022-12-18T10:43:47;100271.63;;;-2.95;100.00
55217;BME280;41086;46.736;15.666;2022-12-18T10:46:15;100277.72;;;-2.92;100.00
55217;BME280;41086;46.736;15.666;2022-12-18T10:51:33;100277.78;;;-2.85;100.00
55217;BME280;41086;46.736;15.666;2022-12-18T10:54:05;100286.44;;;-2.86;100.00
55217;BME280;41086;46.736;15.666;2022-12-18T10:56:35;100299.38;;;-2.90;100.00
55217;BME280;41086;46.736;15.666;2022-12-18T10:59:08;100283.13;;;-2.76;100.00
55217;BME280;41086;46.736;15.666;2022-12-18T11:04:35;100288.31;;;-2.75;100.00
55217;BME280;41086;46.736;15.666;2022-12-18T11:07:15;100281.47;;;-2.70;100.00
55217;BME280;41086;46.736;15.666;2022-12-18T11:09:42;100276.34;;;-2.63;100.00
55217;BME280;41086;46.736;15.666;2022-12-18T11:12:22;100281.34;;;-2.77;100.00
55217;BME280;41086;46.736;15.666;2022-12-18T11:14:54;100272.78;;;-2.72;100.00
55217;BME280;41086;46.736;15.666;2022-12-18T11:17:33;100266.69;;;-2.75;100.00
55217;BME280;41086;46.736;15.666;2022-12-18T11:20:04;100283.16;;;-2.73;100.00
55217;BME280;41086;46.736;15.666;2022-12-18T11:22:35;100290.06;;;-2.75;100.00
55217;BME280;41086;46.736;15.666;2022-12-18T11:25:07;100286.59;;;-2.74;100.00
55217;BME280;41086;46.736;15.666;2022-12-18T11:28:27;100279.78;;;-2.66;100.00
55217;BME280;41086;46.736;15.666;2022-12-18T11:34:30;100265.13;;;-2.61;100.00
55217;BME280;41086;46.736;15.666;2022-12-18T11:36:54;100258.25;;;-2.59;100.00
55217;BME280;41086;46.736;15.666;2022-12-18T11:39:41;100259.22;;;-2.52;100.00
55217;BME280;41086;46.736;15.666;2022-12-18T11:42:20;100258.22;;;-2.62;100.00
55217;BME280;41086;46.736;15.666;2022-12-18T11:45:14;100263.41;;;-2.62;100.00
55217;BME280;41086;46.736;15.666;2022-12-18T11:48:17;100269.44;;;-2.64;100.00
55217;BME280;41086;46.736;15.666;2022-12-18T11:51:14;100268.53;;;-2.67;100.00
55217;BME280;41086;46.736;15.666;2022-12-18T11:53:52;100263.41;;;-2.62;100.00
55217;BME280;41086;46.736;15.666;2022-12-18T11:57:03;100246.09;;;-2.61;100.00
55217;BME280;41086;46.736;15.666;2022-12-18T11:59:55;100249.69;;;-2.52;100.00
55217;BME280;41086;46.736;15.666;2022-12-18T12:02:53;100242.91;;;-2.39;100.00
55217;BME280;41086;46.736;15.666;2022-12-18T12:08:13;100240.31;;;-2.40;100.00
55217;BME280;41086;46.736;15.666;2022-12-18T12:19:15;100241.97;;;-2.46;100.00
55217;BME280;41086;46.736;15.666;2022-12-18T12:21:58;100246.22;;;-2.54;100.00
55217;BME280;41086;46.736;15.666;2022-12-18T12:30:21;100227.97;;;-2.60;100.00
55217;BME280;41086;46.736;15.666;2022-12-18T12:35:47;100222.88;;;-2.52;100.00
55217;BME280;41086;46.736;15.666;2022-12-18T12:38:21;100221.97;;;-2.53;100.00
55217;BME280;41086;46.736;15.666;2022-12-18T12:40:58;100225.44;;;-2.54;100.00
55217;BME280;41086;46.736;15.666;2022-12-18T12:43:44;100231.53;;;-2.52;100.00
55217;BME280;41086;46.736;15.666;2022-12-18T12:46:37;100209.94;;;-2.48;100.00
55217;BME280;41086;46.736;15.666;2022-12-18T12:49:34;100226.38;;;-2.47;100.00
55217;BME280;41086;46.736;15.666;2022-12-18T12:52:12;100214.25;;;-2.50;100.00
55217;BME280;41086;46.736;15.666;2022-12-18T12:54:40;100216.97;;;-2.37;100.00
55217;BME280;41086;46.736;15.666;2022-12-18T12:57:24;100220.38;;;-2.43;100.00
55217;BME280;41086;46.736;15.666;2022-12-18T13:00:15;100231.56;;;-2.47;100.00
55217;BME280;41086;46.736;15.666;2022-12-18T13:03:08;100231.56;;;-2.47;100.00
55217;BME280;41086;46.736;15.666;2022-12-18T13:05:45;100227.22;;;-2.50;100.00
55217;BME280;41086;46.736;15.666;2022-12-18T13:08:28;100231.66;;;-2.39;100.00
55217;BME280;41086;46.736;15.666;2022-12-18T13:11:00;100223.91;;;-2.38;100.00
55217;BME280;41086;46.736;15.666;2022-12-18T13:13:53;100236.94;;;-2.33;100.00
55217;BME280;41086;46.736;15.666;2022-12-18T13:16:25;100226.63;;;-2.26;100.00
55217;BME280;41086;46.736;15.666;2022-12-18T13:18:55;100228.41;;;-2.21;100.00
55217;BME280;41086;46.736;15.666;2022-12-18T13:21:32;100239.66;;;-2.21;100.00
55217;BME280;41086;46.736;15.666;2022-12-18T13:26:50;100225.91;;;-2.12;100.00
55217;BME280;41086;46.736;15.666;2022-12-18T13:29:47;100237.28;;;-1.99;100.00
55217;BME280;41086;46.736;15.666;2022-12-18T13:32:25;100232.13;;;-1.98;100.00
55217;BME280;41086;46.736;15.666;2022-12-18T13:37:53;100240.13;;;-1.75;100.00
55217;BME280;41086;46.736;15.666;2022-12-18T13:46:05;100247.31;;;-1.45;100.00
55217;BME280;41086;46.736;15.666;2022-12-18T13:48:36;100255.16;;;-1.40;100.00
55217;BME280;41086;46.736;15.666;2022-12-18T13:51:10;100250.81;;;-1.43;100.00
55217;BME280;41086;46.736;15.666;2022-12-18T13:53:48;100257.81;;;-1.36;100.00
55217;BME280;41086;46.736;15.666;2022-12-18T13:56:23;100263.84;;;-1.40;100.00
55217;BME280;41086;46.736;15.666;2022-12-18T13:59:17;100269.91;;;-1.41;100.00
55217;BME280;41086;46.736;15.666;2022-12-18T14:01:50;100270.78;;;-1.37;100.00
55217;BME280;41086;46.736;15.666;2022-12-18T14:04:27;100266.47;;;-1.34;100.00